createdAt,value
2018-05-01T00:00:33.964Z,97484.06
2018-05-01T00:03:02.251Z,97496.88
2018-05-01T00:05:31.157Z,97489.02
2018-05-01T00:07:59.605Z,97487.30
2018-05-01T00:10:27.896Z,97490.96
2018-05-01T00:12:56.423Z,97494.20
2018-05-01T00:15:25.275Z,97494.47
2018-05-01T00:17:53.626Z,97484.77
2018-05-01T00:20:21.943Z,97487.36
2018-05-01T00:22:50.220Z,97488.53
2018-05-01T00:25:19.170Z,97496.23
2018-05-01T00:27:48.195Z,97494.68
2018-05-01T00:30:16.956Z,97493.02
2018-05-01T00:32:45.919Z,97502.04
2018-05-01T00:35:15.558Z,97503.86
2018-05-01T00:37:43.983Z,97500.69
2018-05-01T00:40:12.934Z,97503.93
2018-05-01T00:42:41.427Z,97500.10
2018-05-01T00:45:09.742Z,97509.59
2018-05-01T00:47:38.138Z,97508.39
2018-05-01T00:50:06.430Z,97505.26
2018-05-01T00:52:45.408Z,97505.41
2018-05-01T00:55:14.467Z,97510.48
2018-05-01T00:57:42.759Z,97516.01
2018-05-01T01:00:11.451Z,97509.16
2018-05-01T01:02:39.732Z,97512.94
2018-05-01T01:05:08.102Z,97505.73
2018-05-01T01:07:36.739Z,97507.48
2018-05-01T01:10:05.382Z,97500.55
2018-05-01T01:12:33.668Z,97512.62
2018-05-01T01:15:03.022Z,97515.76
2018-05-01T01:17:31.311Z,97515.11
2018-05-01T01:19:59.591Z,97515.94
2018-05-01T01:22:28.647Z,97518.09
2018-05-01T01:24:56.927Z,97518.72
2018-05-01T01:27:25.854Z,97529.23
2018-05-01T01:29:54.494Z,97524.41
2018-05-01T01:32:22.771Z,97528.55
2018-05-01T01:34:51.497Z,97533.02
2018-05-01T01:37:19.051Z,97538.32
2018-05-01T01:39:46.539Z,97534.61
2018-05-01T01:42:14.036Z,97538.05
2018-05-01T01:44:41.944Z,97540.97
2018-05-01T01:47:09.447Z,97541.70
2018-05-01T01:49:36.946Z,97543.72
2018-05-01T01:52:04.495Z,97549.87
2018-05-01T01:54:31.983Z,97553.92
2018-05-01T01:56:59.474Z,97544.75
2018-05-01T01:59:26.994Z,97550.20
2018-05-01T02:01:58.522Z,97556.28
2018-05-01T02:04:26.035Z,97565.05
2018-05-01T02:06:53.566Z,97553.92
2018-05-01T02:09:21.059Z,97557.64
2018-05-01T02:11:49.019Z,97560.47
2018-05-01T02:14:16.546Z,97566.73
2018-05-01T02:16:44.030Z,97574.11
2018-05-01T02:19:11.515Z,97580.54
2018-05-01T02:21:39.807Z,97582.54
2018-05-01T02:24:07.299Z,97579.82
2018-05-01T02:26:34.799Z,97583.63
2018-05-01T02:29:02.328Z,97582.37
2018-05-01T02:31:29.828Z,97582.89
2018-05-01T02:33:58.097Z,97595.81
2018-05-01T02:36:25.649Z,97593.63
2018-05-01T02:38:54.607Z,97602.32
2018-05-01T02:41:22.109Z,97599.58
2018-05-01T02:43:50.367Z,97602.95
2018-05-01T02:46:17.912Z,97604.27
2018-05-01T02:48:45.615Z,97609.17
2018-05-01T02:51:13.123Z,97616.47
2018-05-01T02:53:40.654Z,97621.31
2018-05-01T02:56:08.280Z,97617.33
2018-05-01T02:58:35.783Z,97619.36
2018-05-01T03:01:03.322Z,97627.58
2018-05-01T03:03:30.811Z,97623.30
2018-05-01T03:05:58.299Z,97618.80
2018-05-01T03:08:25.853Z,97619.96
2018-05-01T03:10:53.554Z,97617.31
2018-05-01T03:13:21.052Z,97617.91
2018-05-01T03:15:48.610Z,97621.03
2018-05-01T03:18:16.117Z,97629.23
2018-05-01T03:20:43.691Z,97624.53
2018-05-01T03:23:11.987Z,97629.02
2018-05-01T03:25:39.474Z,97634.00
2018-05-01T03:28:06.960Z,97630.19
2018-05-01T03:30:34.489Z,97626.05
2018-05-01T03:33:01.993Z,97623.02
2018-05-01T03:35:30.750Z,97624.07
2018-05-01T03:37:58.270Z,97614.50
2018-05-01T03:40:25.762Z,97617.00
2018-05-01T03:42:53.242Z,97629.80
2018-05-01T03:45:20.755Z,97629.48
2018-05-01T03:47:48.802Z,97633.41
2018-05-01T03:50:17.050Z,97634.58
2018-05-01T03:52:44.588Z,97637.31
2018-05-01T03:55:12.127Z,97636.89
2018-05-01T03:57:39.606Z,97630.96
2018-05-01T04:00:07.091Z,97632.13
2018-05-01T04:02:34.627Z,97638.92
2018-05-01T04:05:02.287Z,97638.02
2018-05-01T04:07:29.808Z,97633.89
2018-05-01T04:09:57.606Z,97646.69
2018-05-01T04:12:25.102Z,97643.00
2018-05-01T04:14:52.591Z,97657.08
2018-05-01T04:17:20.107Z,97660.51
2018-05-01T04:19:49.134Z,97660.90
2018-05-01T04:22:16.618Z,97663.23
2018-05-01T04:24:44.194Z,97666.96
2018-05-01T04:27:11.682Z,97670.13
2018-05-01T04:29:39.179Z,97678.14
2018-05-01T04:32:06.722Z,97680.91
2018-05-01T04:34:34.975Z,97687.69
2018-05-01T04:37:02.458Z,97693.39
2018-05-01T04:39:30.764Z,97697.60
2018-05-01T04:41:58.563Z,97699.53
2018-05-01T04:44:26.063Z,97699.04
2018-05-01T04:46:53.728Z,97707.81
2018-05-01T04:49:21.215Z,97710.56
2018-05-01T04:51:48.766Z,97715.17
2018-05-01T04:54:16.251Z,97714.81
2018-05-01T04:56:44.342Z,97718.07
2018-05-01T04:59:11.834Z,97730.69
2018-05-01T05:01:39.363Z,97731.94
2018-05-01T05:04:06.850Z,97731.73
2018-05-01T05:06:34.334Z,97732.35
2018-05-01T05:09:02.494Z,97743.86
2018-05-01T05:11:30.107Z,97750.50
2018-05-01T05:13:57.803Z,97753.67
2018-05-01T05:16:26.515Z,97758.45
2018-05-01T05:18:54.014Z,97757.45
2018-05-01T05:21:21.499Z,97762.72
2018-05-01T05:23:49.037Z,97766.66
2018-05-01T05:26:16.527Z,97766.81
2018-05-01T05:28:44.011Z,97770.79
2018-05-01T05:31:12.875Z,97776.58
2018-05-01T05:33:40.355Z,97774.64
2018-05-01T05:36:07.843Z,97781.66
2018-05-01T05:38:35.379Z,97785.80
2018-05-01T05:41:02.869Z,97792.89
2018-05-01T05:43:30.358Z,97798.79
2018-05-01T05:45:58.634Z,97791.28
2018-05-01T05:48:26.879Z,97800.13
2018-05-01T05:50:54.422Z,97797.66
2018-05-01T05:53:21.937Z,97810.43
2018-05-01T05:55:49.436Z,97811.38
2018-05-01T05:58:16.914Z,97806.27
2018-05-01T06:00:44.443Z,97809.12
2018-05-01T06:03:11.931Z,97812.92
2018-05-01T06:05:39.413Z,97817.27
2018-05-01T06:08:07.030Z,97816.00
2018-05-01T06:10:34.523Z,97817.85
2018-05-01T06:13:02.043Z,97817.53
2018-05-01T06:15:29.591Z,97823.45
2018-05-01T06:17:57.106Z,97833.69
2018-05-01T06:20:27.462Z,97835.45
2018-05-01T06:22:55.227Z,97834.08
2018-05-01T06:25:23.334Z,97837.73
2018-05-01T06:27:56.067Z,97838.52
2018-05-01T06:30:23.598Z,97834.47
2018-05-01T06:32:53.903Z,97848.45
2018-05-01T06:35:21.391Z,97849.39
2018-05-01T06:37:48.877Z,97850.59
2018-05-01T06:40:16.407Z,97853.03
2018-05-01T06:42:44.658Z,97860.73
2018-05-01T06:45:12.142Z,97858.16
2018-05-01T06:47:39.710Z,97863.36
2018-05-01T06:50:07.515Z,97863.19
2018-05-01T06:52:35.204Z,97869.22
2018-05-01T06:55:02.722Z,97864.95
2018-05-01T06:57:30.208Z,97868.03
2018-05-01T06:59:57.726Z,97874.06
2018-05-01T07:02:25.215Z,97876.90
2018-05-01T07:04:52.726Z,97880.05
2018-05-01T07:07:20.478Z,97889.95
2018-05-01T07:09:48.011Z,97895.63
2018-05-01T07:12:15.798Z,97887.95
2018-05-01T07:14:44.316Z,97895.66
2018-05-01T07:17:12.233Z,97891.84
2018-05-01T07:19:39.726Z,97887.83
2018-05-01T07:22:07.807Z,97885.83
2018-05-01T07:24:36.359Z,97890.33
2018-05-01T07:27:04.513Z,97886.50
2018-05-01T07:29:32.166Z,97895.25
2018-05-01T07:31:59.649Z,97895.70
2018-05-01T07:34:27.146Z,97898.02
2018-05-01T07:36:57.619Z,97899.77
2018-05-01T07:39:25.203Z,97899.50
2018-05-01T07:41:52.761Z,97911.19
2018-05-01T07:44:20.822Z,97913.06
2018-05-01T07:46:48.915Z,97911.64
2018-05-01T07:49:16.739Z,97909.66
2018-05-01T07:51:44.718Z,97908.79
2018-05-01T07:54:12.272Z,97906.66
2018-05-01T07:56:39.972Z,97908.16
2018-05-01T07:59:07.462Z,97905.97
2018-05-01T08:01:35.005Z,97901.50
2018-05-01T08:04:02.514Z,97906.52
2018-05-01T08:06:30.172Z,97903.89
2018-05-01T08:08:57.654Z,97906.57
2018-05-01T08:11:25.236Z,97921.69
2018-05-01T08:13:52.759Z,97924.08
2018-05-01T08:16:20.242Z,97917.82
2018-05-01T08:18:47.762Z,97909.52
2018-05-01T08:21:15.264Z,97907.70
2018-05-01T08:23:43.738Z,97918.59
2018-05-01T08:26:12.031Z,97918.27
2018-05-01T08:28:40.294Z,97914.41
2018-05-01T08:31:07.823Z,97909.26
2018-05-01T08:33:35.350Z,97912.27
2018-05-01T08:36:04.098Z,97917.41
2018-05-01T08:38:31.591Z,97919.67
2018-05-01T08:40:59.130Z,97921.27
2018-05-01T08:43:26.955Z,97925.47
2018-05-01T08:45:54.455Z,97923.29
2018-05-01T08:48:22.094Z,97928.70
2018-05-01T08:50:49.591Z,97930.42
2018-05-01T08:53:17.083Z,97936.05
2018-05-01T08:55:44.618Z,97937.19
2018-05-01T08:58:12.111Z,97937.41
2018-05-01T09:00:39.607Z,97944.11
2018-05-01T09:03:07.138Z,97949.23
2018-05-01T09:05:35.115Z,97953.29
2018-05-01T09:08:02.602Z,97963.78
2018-05-01T09:10:30.159Z,97967.75
2018-05-01T09:12:58.431Z,97962.51
2018-05-01T09:15:25.991Z,97959.91
2018-05-01T09:17:53.798Z,97950.05
2018-05-01T09:20:22.183Z,97955.12
2018-05-01T09:22:49.810Z,97951.82
2018-05-01T09:25:17.351Z,97961.38
2018-05-01T09:27:44.847Z,97961.41
2018-05-01T09:30:12.339Z,97970.96
2018-05-01T09:32:39.862Z,97970.97
2018-05-01T09:35:07.365Z,97976.59
2018-05-01T09:37:34.903Z,97974.11
2018-05-01T09:40:02.618Z,97975.97
2018-05-01T09:42:30.119Z,97973.36
2018-05-01T09:44:57.866Z,97966.08
2018-05-01T09:47:25.951Z,97975.72
2018-05-01T09:49:53.398Z,97968.73
2018-05-01T09:52:21.732Z,97970.53
2018-05-01T09:54:50.686Z,97968.71
2018-05-01T09:57:19.350Z,97968.02
2018-05-01T09:59:47.926Z,97970.14
2018-05-01T10:02:16.247Z,97973.27
2018-05-01T10:04:44.530Z,97969.92
2018-05-01T10:07:12.810Z,97973.81
2018-05-01T10:09:41.148Z,97969.94
2018-05-01T10:12:09.747Z,97971.91
2018-05-01T10:14:37.986Z,97966.55
2018-05-01T10:17:06.824Z,97964.87
2018-05-01T10:19:35.112Z,97955.28
2018-05-01T10:22:03.612Z,97959.25
2018-05-01T10:24:32.618Z,97957.66
2018-05-01T10:27:00.938Z,97953.64
2018-05-01T10:29:29.220Z,97949.98
2018-05-01T10:31:57.501Z,97949.84
2018-05-01T10:34:25.843Z,97945.37
2018-05-01T10:36:54.189Z,97943.00
2018-05-01T10:39:23.188Z,97942.94
2018-05-01T10:41:51.877Z,97935.64
2018-05-01T10:44:20.446Z,97934.72
2018-05-01T10:46:48.960Z,97937.80
2018-05-01T10:49:18.488Z,97936.77
2018-05-01T10:51:47.642Z,97924.39
2018-05-01T10:54:15.923Z,97924.94
2018-05-01T10:56:44.542Z,97913.53
2018-05-01T10:59:12.846Z,97908.75
2018-05-01T11:01:44.216Z,97910.17
2018-05-01T11:04:12.979Z,97905.47
2018-05-01T11:06:41.999Z,97906.64
2018-05-01T11:09:10.842Z,97905.53
2018-05-01T11:11:39.679Z,97903.53
2018-05-01T11:14:07.974Z,97910.92
2018-05-01T11:16:36.360Z,97913.83
2018-05-01T11:19:04.640Z,97924.66
2018-05-01T11:21:33.399Z,97918.38
2018-05-01T11:24:02.011Z,97924.19
2018-05-01T11:26:30.805Z,97926.23
2018-05-01T11:28:59.943Z,97923.14
2018-05-01T11:31:28.982Z,97924.95
2018-05-01T11:33:57.285Z,97913.86
2018-05-01T11:36:25.714Z,97913.75
2018-05-01T11:38:54.007Z,97926.02
2018-05-01T11:41:22.339Z,97926.84
2018-05-01T11:43:51.432Z,97940.50
2018-05-01T11:46:19.536Z,97949.52
2018-05-01T11:48:48.067Z,97933.45
2018-05-01T11:51:16.342Z,97927.75
2018-05-01T11:53:45.129Z,97933.91
2018-05-01T11:56:13.791Z,97933.64
2018-05-01T11:58:42.740Z,97948.88
2018-05-01T12:01:11.017Z,97941.77
2018-05-01T12:03:39.323Z,97937.59
2018-05-01T12:06:07.607Z,97935.64
2018-05-01T12:08:35.911Z,97931.70
2018-05-01T12:11:04.530Z,97925.25
2018-05-01T12:13:32.887Z,97930.14
2018-05-01T12:16:01.569Z,97922.15
2018-05-01T12:18:30.176Z,97928.60
2018-05-01T12:20:58.479Z,97928.33
2018-05-01T12:23:26.944Z,97916.55
2018-05-01T12:25:55.223Z,97927.31
2018-05-01T12:28:23.611Z,97919.71
2018-05-01T12:30:51.791Z,97925.42
2018-05-01T12:33:20.623Z,97933.13
2018-05-01T12:35:48.910Z,97931.70
2018-05-01T12:38:17.210Z,97941.27
2018-05-01T12:40:45.535Z,97932.05
2018-05-01T12:43:14.090Z,97926.18
2018-05-01T12:45:42.467Z,97931.07
2018-05-01T12:48:10.795Z,97920.33
2018-05-01T12:50:39.858Z,97921.08
2018-05-01T12:53:08.150Z,97919.02
2018-05-01T12:55:36.475Z,97918.33
2018-05-01T12:58:05.331Z,97916.82
2018-05-01T13:00:34.591Z,97913.31
2018-05-01T13:03:03.636Z,97921.78
2018-05-01T13:05:32.679Z,97921.02
2018-05-01T13:08:00.979Z,97928.55
2018-05-01T13:10:30.962Z,97916.56
2018-05-01T13:12:59.236Z,97913.25
2018-05-01T13:15:28.066Z,97905.34
2018-05-01T13:17:56.367Z,97904.92
2018-05-01T13:20:24.813Z,97903.37
2018-05-01T13:22:53.139Z,97894.08
2018-05-01T13:25:22.218Z,97896.73
2018-05-01T13:27:55.503Z,97896.42
2018-05-01T13:30:24.572Z,97900.20
2018-05-01T13:32:52.808Z,97898.14
2018-05-01T13:35:21.095Z,97889.23
2018-05-01T13:37:50.307Z,97889.48
2018-05-01T13:40:18.619Z,97887.67
2018-05-01T13:42:49.939Z,97886.84
2018-05-01T13:45:18.254Z,97890.95
2018-05-01T13:47:46.557Z,97896.48
2018-05-01T13:50:15.381Z,97894.39
2018-05-01T13:52:43.677Z,97884.36
2018-05-01T13:55:12.676Z,97881.61
2018-05-01T13:57:40.950Z,97882.77
2018-05-01T14:00:09.515Z,97878.41
2018-05-01T14:02:42.030Z,97881.99
2018-05-01T14:05:10.321Z,97886.80
2018-05-01T14:07:38.610Z,97888.94
2018-05-01T14:10:08.150Z,97885.59
2018-05-01T14:12:36.429Z,97877.47
2018-05-01T14:15:04.948Z,97873.71
2018-05-01T14:17:33.081Z,97869.16
2018-05-01T14:20:01.884Z,97875.49
2018-05-01T14:22:30.939Z,97869.87
2018-05-01T14:24:59.250Z,97869.43
2018-05-01T14:27:28.459Z,97867.17
2018-05-01T14:29:57.850Z,97868.56
2018-05-01T14:32:26.183Z,97861.13
2018-05-01T14:34:54.500Z,97867.10
2018-05-01T14:37:22.841Z,97863.86
2018-05-01T14:39:51.123Z,97857.78
2018-05-01T14:42:19.459Z,97862.73
2018-05-01T14:44:47.739Z,97864.77
2018-05-01T14:47:16.243Z,97858.87
2018-05-01T14:49:47.111Z,97856.42
2018-05-01T14:52:16.329Z,97859.77
2018-05-01T14:54:44.655Z,97854.63
2018-05-01T14:57:13.507Z,97859.10
2018-05-01T14:59:42.778Z,97861.95
2018-05-01T15:02:11.322Z,97847.66
2018-05-01T15:04:40.974Z,97853.41
2018-05-01T15:07:09.401Z,97846.84
2018-05-01T15:09:38.341Z,97856.86
2018-05-01T15:12:06.638Z,97854.74
2018-05-01T15:14:35.299Z,97855.33
2018-05-01T15:17:03.934Z,97848.62
2018-05-01T15:19:32.217Z,97855.69
2018-05-01T15:22:01.179Z,97862.57
2018-05-01T15:24:29.679Z,97853.73
2018-05-01T15:26:58.835Z,97861.47
2018-05-01T15:29:27.110Z,97857.11
2018-05-01T15:31:56.442Z,97853.84
2018-05-01T15:34:24.757Z,97850.88
2018-05-01T15:36:53.034Z,97847.38
2018-05-01T15:39:21.312Z,97851.97
2018-05-01T15:41:50.115Z,97854.18
2018-05-01T15:44:19.019Z,97856.24
2018-05-01T15:46:48.236Z,97855.71
2018-05-01T15:49:16.541Z,97854.80
2018-05-01T15:51:44.898Z,97850.39
2018-05-01T15:54:14.007Z,97857.69
2018-05-01T15:56:42.978Z,97861.83
2018-05-01T15:59:11.773Z,97853.77
2018-05-01T16:01:40.472Z,97857.54
2018-05-01T16:04:08.791Z,97855.67
2018-05-01T16:06:37.141Z,97853.18
2018-05-01T16:09:05.424Z,97852.03
2018-05-01T16:11:33.699Z,97853.78
2018-05-01T16:14:02.018Z,97848.57
2018-05-01T16:16:30.483Z,97847.64
2018-05-01T16:18:59.529Z,97844.24
2018-05-01T16:21:29.139Z,97843.97
2018-05-01T16:23:58.172Z,97844.16
2018-05-01T16:26:26.366Z,97850.63
2018-05-01T16:28:54.723Z,97842.88
2018-05-01T16:31:23.975Z,97845.23
2018-05-01T16:33:52.318Z,97844.29
2018-05-01T16:36:20.558Z,97836.23
2018-05-01T16:38:49.142Z,97836.13
2018-05-01T16:41:17.806Z,97840.64
2018-05-01T16:43:45.967Z,97839.33
2018-05-01T16:46:14.267Z,97849.08
2018-05-01T16:48:42.558Z,97839.45
2018-05-01T16:51:11.179Z,97845.00
2018-05-01T16:53:41.639Z,97848.06
2018-05-01T16:56:09.939Z,97846.73
2018-05-01T16:58:38.548Z,97847.24
2018-05-01T17:01:07.950Z,97848.06
2018-05-01T17:03:36.299Z,97850.72
2018-05-01T17:06:05.339Z,97857.16
2018-05-01T17:08:34.419Z,97856.80
2018-05-01T17:11:03.430Z,97838.66
2018-05-01T17:13:31.747Z,97854.27
2018-05-01T17:16:00.035Z,97859.81
2018-05-01T17:18:28.341Z,97851.86
2018-05-01T17:20:56.942Z,97855.81
2018-05-01T17:23:25.639Z,97846.12
2018-05-01T17:25:54.704Z,97853.91
2018-05-01T17:28:23.173Z,97847.62
2018-05-01T17:30:52.354Z,97841.23
2018-05-01T17:33:20.839Z,97839.13
2018-05-01T17:35:49.556Z,97844.23
2018-05-01T17:38:18.039Z,97848.11
2018-05-01T17:40:46.969Z,97840.84
2018-05-01T17:43:15.186Z,97852.53
2018-05-01T17:45:44.258Z,97852.81
2018-05-01T17:48:12.582Z,97856.30
2018-05-01T17:50:40.870Z,97859.28
2018-05-01T17:53:10.934Z,97860.30
2018-05-01T17:55:39.295Z,97861.55
2018-05-01T17:58:10.627Z,97860.73
2018-05-01T18:00:38.920Z,97864.34
2018-05-01T18:03:07.260Z,97864.22
2018-05-01T18:05:36.308Z,97858.56
2018-05-01T18:08:04.671Z,97861.06
2018-05-01T18:10:33.818Z,97868.00
2018-05-01T18:13:02.970Z,97875.02
2018-05-01T18:15:31.263Z,97881.91
2018-05-01T18:18:00.402Z,97881.11
2018-05-01T18:20:29.079Z,97878.62
2018-05-01T18:22:57.487Z,97876.08
2018-05-01T18:25:25.827Z,97882.50
2018-05-01T18:27:59.837Z,97883.70
2018-05-01T18:30:28.402Z,97885.66
2018-05-01T18:32:57.300Z,97878.66
2018-05-01T18:35:25.682Z,97883.73
2018-05-01T18:37:53.972Z,97887.58
2018-05-01T18:40:22.251Z,97889.64
2018-05-01T18:42:50.579Z,97895.64
2018-05-01T18:45:18.863Z,97893.19
2018-05-01T18:47:54.103Z,97898.67
2018-05-01T18:50:22.386Z,97906.41
2018-05-01T18:52:50.667Z,97907.56
2018-05-01T18:55:19.010Z,97909.52
2018-05-01T18:57:47.482Z,97905.20
2018-05-01T19:00:15.743Z,97912.52
2018-05-01T19:02:44.035Z,97911.23
2018-05-01T19:05:12.351Z,97901.43
2018-05-01T19:07:40.638Z,97900.13
2018-05-01T19:10:09.015Z,97908.43
2018-05-01T19:12:37.311Z,97916.36
2018-05-01T19:15:05.594Z,97918.41
2018-05-01T19:17:33.925Z,97929.86
2018-05-01T19:20:02.304Z,97924.81
2018-05-01T19:22:30.754Z,97942.02
2018-05-01T19:24:59.451Z,97945.94
2018-05-01T19:27:27.763Z,97947.28
2018-05-01T19:29:56.088Z,97949.34
2018-05-01T19:32:24.367Z,97943.30
2018-05-01T19:34:52.647Z,97951.16
2018-05-01T19:37:20.967Z,97949.09
2018-05-01T19:39:50.586Z,97943.44
2018-05-01T19:42:18.634Z,97946.47
2018-05-01T19:44:47.846Z,97936.67
2018-05-01T19:47:16.904Z,97941.09
2018-05-01T19:49:45.276Z,97940.33
2018-05-01T19:52:13.747Z,97946.37
2018-05-01T19:54:42.022Z,97941.73
2018-05-01T19:57:10.298Z,97936.90
2018-05-01T19:59:38.630Z,97934.39
2018-05-01T20:02:06.906Z,97937.33
2018-05-01T20:04:35.814Z,97942.11
2018-05-01T20:07:04.138Z,97949.52
2018-05-01T20:09:32.934Z,97948.84
2018-05-01T20:12:01.218Z,97946.47
2018-05-01T20:14:29.539Z,97945.15
2018-05-01T20:16:57.858Z,97949.73
2018-05-01T20:19:26.127Z,97958.55
2018-05-01T20:21:54.471Z,97948.47
2018-05-01T20:24:22.749Z,97946.61
2018-05-01T20:26:51.124Z,97953.28
2018-05-01T20:29:19.535Z,97959.19
2018-05-01T20:31:47.811Z,97949.78
2018-05-01T20:34:16.086Z,97951.75
2018-05-01T20:36:45.178Z,97953.80
2018-05-01T20:39:13.609Z,97957.36
2018-05-01T20:41:42.006Z,97966.02
2018-05-01T20:44:10.359Z,97964.28
2018-05-01T20:46:38.864Z,97962.16
2018-05-01T20:49:07.770Z,97961.59
2018-05-01T20:51:35.870Z,97961.67
2018-05-01T20:54:05.586Z,97959.22
2018-05-01T20:56:34.037Z,97956.52
2018-05-01T20:59:02.381Z,97952.97
2018-05-01T21:01:30.957Z,97950.50
2018-05-01T21:03:59.282Z,97951.36
2018-05-01T21:06:27.867Z,97953.02
2018-05-01T21:09:02.475Z,97958.56
2018-05-01T21:11:30.621Z,97957.55
2018-05-01T21:13:58.935Z,97957.16
2018-05-01T21:16:28.028Z,97952.70
2018-05-01T21:18:56.991Z,97960.08
2018-05-01T21:21:25.671Z,97964.53
2018-05-01T21:23:53.998Z,97962.23
2018-05-01T21:26:25.362Z,97964.98
2018-05-01T21:28:53.751Z,97957.24
2018-05-01T21:31:23.712Z,97954.80
2018-05-01T21:33:52.742Z,97956.91
2018-05-01T21:36:21.181Z,97964.06
2018-05-01T21:38:49.438Z,97954.96
2018-05-01T21:41:18.102Z,97958.74
2018-05-01T21:43:46.420Z,97963.69
2018-05-01T21:46:14.962Z,97967.09
2018-05-01T21:48:43.337Z,97963.86
2018-05-01T21:51:11.618Z,97967.64
2018-05-01T21:53:40.750Z,97972.64
2018-05-01T21:56:09.721Z,97974.30
2018-05-01T21:58:38.442Z,97968.44
2018-05-01T22:01:06.935Z,97969.51
2018-05-01T22:03:35.862Z,97966.97
2018-05-01T22:06:04.307Z,97960.03
2018-05-01T22:08:32.692Z,97956.14
2018-05-01T22:11:01.715Z,97965.02
2018-05-01T22:13:30.819Z,97955.02
2018-05-01T22:15:59.125Z,97961.42
2018-05-01T22:18:27.459Z,97955.38
2018-05-01T22:20:56.427Z,97954.09
2018-05-01T22:23:24.926Z,97958.84
2018-05-01T22:25:53.626Z,97960.61
2018-05-01T22:28:21.913Z,97961.64
2018-05-01T22:30:50.250Z,97961.28
2018-05-01T22:33:19.379Z,97963.73
2018-05-01T22:35:48.361Z,97960.41
2018-05-01T22:38:16.635Z,97951.10
2018-05-01T22:40:45.267Z,97958.91
2018-05-01T22:43:13.328Z,97953.42
2018-05-01T22:45:41.607Z,97951.48
2018-05-01T22:48:09.882Z,97949.74
2018-05-01T22:50:38.359Z,97943.05
2018-05-01T22:53:06.634Z,97940.92
2018-05-01T22:55:35.425Z,97942.09
2018-05-01T22:58:04.779Z,97940.94
2018-05-01T23:00:33.062Z,97944.48
2018-05-01T23:03:01.397Z,97945.18
2018-05-01T23:05:30.051Z,97945.95
2018-05-01T23:07:59.502Z,97941.58
2018-05-01T23:10:27.827Z,97936.64
2018-05-01T23:12:56.110Z,97944.50
2018-05-01T23:15:24.373Z,97932.19
2018-05-01T23:17:52.717Z,97931.88
2018-05-01T23:20:20.991Z,97939.70
2018-05-01T23:22:49.263Z,97945.33
2018-05-01T23:25:17.562Z,97935.84
2018-05-01T23:27:46.050Z,97948.44
2018-05-01T23:30:14.335Z,97945.14
2018-05-01T23:32:42.615Z,97948.63
2018-05-01T23:35:10.939Z,97949.08
2018-05-01T23:37:40.026Z,97950.70
2018-05-01T23:40:09.118Z,97957.86
2018-05-01T23:42:38.299Z,97954.59
2018-05-01T23:45:06.986Z,97949.64
2018-05-01T23:47:35.303Z,97956.67
2018-05-01T23:50:03.590Z,97950.19
2018-05-01T23:52:32.507Z,97946.13
2018-05-01T23:55:00.947Z,97945.20
2018-05-01T23:57:29.223Z,97944.41
2018-05-01T23:59:57.556Z,97944.64
